createdAt,value
2023-06-09T00:04:34.807Z,6.75
2023-06-09T00:09:38.513Z,5.25
2023-06-09T00:14:41.459Z,8.25
2023-06-09T00:19:47.653Z,7.00
2023-06-09T00:24:51.226Z,8.00
2023-06-09T00:29:54.125Z,7.75
2023-06-09T00:34:58.378Z,9.00
2023-06-09T00:40:01.376Z,7.25
2023-06-09T00:45:07.617Z,8.00
2023-06-09T00:50:13.843Z,9.00
2023-06-09T00:55:19.394Z,7.00
2023-06-09T01:00:25.836Z,7.00
2023-06-09T01:05:30.791Z,6.75
2023-06-09T01:10:42.335Z,9.00
2023-06-09T01:15:50.223Z,5.25
2023-06-09T01:21:07.605Z,8.00
2023-06-09T01:26:13.008Z,6.50
2023-06-09T01:31:17.373Z,7.00
2023-06-09T01:36:20.305Z,8.00
2023-06-09T01:41:26.407Z,7.75
2023-06-09T01:46:30.641Z,6.25
2023-06-09T01:51:42.344Z,7.75
2023-06-09T01:56:49.066Z,8.75
2023-06-09T02:01:54.806Z,6.25
2023-06-09T02:06:58.868Z,7.50
2023-06-09T02:12:03.203Z,8.00
2023-06-09T02:17:06.408Z,6.00
2023-06-09T02:22:10.114Z,6.75
2023-06-09T02:27:14.279Z,10.00
2023-06-09T02:32:18.343Z,8.00
2023-06-09T02:37:21.162Z,7.00
2023-06-09T02:42:25.420Z,7.50
2023-06-09T02:47:28.460Z,8.00
2023-06-09T02:52:32.459Z,8.00
2023-06-09T02:57:37.755Z,8.50
2023-06-09T03:02:42.287Z,9.25
2023-06-09T03:07:45.620Z,7.25
2023-06-09T03:12:50.217Z,9.25
2023-06-09T03:17:54.127Z,5.75
2023-06-09T03:22:59.140Z,8.50
2023-06-09T03:28:04.144Z,7.75
2023-06-09T03:33:12.186Z,6.50
2023-06-09T03:38:16.521Z,9.00
2023-06-09T03:43:20.952Z,9.25
2023-06-09T03:48:24.494Z,8.50
2023-06-09T03:53:28.482Z,6.75
2023-06-09T03:58:33.476Z,8.00
2023-06-09T04:03:36.966Z,6.75
2023-06-09T04:08:40.829Z,6.50
2023-06-09T04:13:45.840Z,7.75
2023-06-09T04:18:48.816Z,8.75
2023-06-09T04:23:51.750Z,7.00
2023-06-09T04:28:55.969Z,7.75
2023-06-09T04:34:07.042Z,8.00
2023-06-09T04:39:10.441Z,9.25
2023-06-09T04:44:14.770Z,7.50
2023-06-09T04:49:19.745Z,8.00
2023-06-09T04:54:23.450Z,6.00
2023-06-09T04:59:29.867Z,9.25
2023-06-09T05:04:33.121Z,7.00
2023-06-09T05:09:37.589Z,8.50
2023-06-09T05:14:43.842Z,9.75
2023-06-09T05:19:47.081Z,10.75
2023-06-09T05:24:51.796Z,10.25
2023-06-09T05:29:56.338Z,6.00
2023-06-09T05:35:01.473Z,8.50
2023-06-09T05:40:05.740Z,14.50
2023-06-09T05:45:11.297Z,8.75
2023-06-09T05:50:14.151Z,9.50
2023-06-09T05:55:18.137Z,16.00
2023-06-09T06:00:23.501Z,17.60
2023-06-09T06:05:26.334Z,10.50
2023-06-09T06:10:29.330Z,15.00
2023-06-09T06:15:33.525Z,15.75
2023-06-09T06:20:36.453Z,12.00
2023-06-09T06:25:42.472Z,14.25
2023-06-09T06:30:47.047Z,10.25
2023-06-09T06:35:49.976Z,9.25
2023-06-09T06:40:53.010Z,9.75
2023-06-09T06:45:57.395Z,9.00
2023-06-09T06:51:00.291Z,8.50
2023-06-09T06:56:03.208Z,9.25
2023-06-09T07:01:08.169Z,9.00
2023-06-09T07:06:11.619Z,12.00
2023-06-09T07:11:15.649Z,13.00
2023-06-09T07:16:20.381Z,12.75
2023-06-09T07:21:23.195Z,10.50
2023-06-09T07:26:26.233Z,12.25
2023-06-09T07:31:31.851Z,12.50
2023-06-09T07:36:38.797Z,9.25
2023-06-09T07:41:42.503Z,12.00
2023-06-09T07:46:46.836Z,9.75
2023-06-09T07:51:51.375Z,10.25
2023-06-09T07:56:54.505Z,9.75
2023-06-09T08:01:58.717Z,8.75
2023-06-09T08:07:01.861Z,9.00
2023-06-09T08:12:07.428Z,9.50
2023-06-09T08:17:12.000Z,8.25
2023-06-09T08:22:15.454Z,10.75
2023-06-09T08:27:18.293Z,10.00
2023-06-09T08:32:22.726Z,10.00
2023-06-09T08:37:26.679Z,11.00
2023-06-09T08:42:33.294Z,12.00
2023-06-09T08:47:39.035Z,10.75
2023-06-09T08:52:43.192Z,9.00
2023-06-09T08:57:46.444Z,11.75
2023-06-09T09:02:51.041Z,14.25
2023-06-09T09:07:54.879Z,8.50
2023-06-09T09:13:00.498Z,11.00
2023-06-09T09:18:06.243Z,11.00
2023-06-09T09:23:09.148Z,9.75
2023-06-09T09:28:13.549Z,9.25
2023-06-09T09:33:21.548Z,13.00
2023-06-09T09:38:25.843Z,12.50
2023-06-09T09:43:30.676Z,9.75
2023-06-09T09:48:38.510Z,11.50
2023-06-09T09:53:45.594Z,10.75
2023-06-09T09:58:52.417Z,7.75
2023-06-09T10:03:58.357Z,11.25
2023-06-09T10:09:01.728Z,8.75
2023-06-09T10:14:05.581Z,9.00
2023-06-09T10:19:10.337Z,10.00
2023-06-09T10:24:15.029Z,7.25
2023-06-09T10:29:18.853Z,7.75
2023-06-09T10:34:24.291Z,8.00
2023-06-09T10:39:32.725Z,6.25
2023-06-09T10:44:44.665Z,9.25
2023-06-09T10:49:50.886Z,9.00
2023-06-09T10:55:13.005Z,8.00
2023-06-09T11:00:17.092Z,6.25
2023-06-09T11:05:22.923Z,9.00
2023-06-09T11:10:28.409Z,9.75
2023-06-09T11:16:02.346Z,9.00
2023-06-09T11:21:18.130Z,9.00
2023-06-09T11:26:23.237Z,8.25
2023-06-09T11:31:27.922Z,10.50
2023-06-09T11:36:33.490Z,8.50
2023-06-09T11:41:36.706Z,12.00
2023-06-09T11:46:52.590Z,10.25
2023-06-09T11:52:04.300Z,7.50
2023-06-09T11:57:07.757Z,9.00
2023-06-09T12:02:13.230Z,9.75
2023-06-09T12:07:19.258Z,9.25
2023-06-09T12:12:22.232Z,5.75
2023-06-09T12:17:26.927Z,8.00
2023-06-09T12:22:40.781Z,10.75
2023-06-09T12:27:43.577Z,8.50
2023-06-09T12:32:46.822Z,8.50
2023-06-09T12:37:51.168Z,10.00
2023-06-09T12:42:53.994Z,7.00
2023-06-09T12:47:57.028Z,8.00
2023-06-09T12:53:01.284Z,7.75
2023-06-09T12:58:05.107Z,8.25
2023-06-09T13:03:11.970Z,6.75
2023-06-09T13:08:16.411Z,7.50
2023-06-09T13:13:19.259Z,8.00
2023-06-09T13:18:22.091Z,7.00
2023-06-09T13:23:26.362Z,7.75
2023-06-09T13:28:29.580Z,6.75
2023-06-09T13:33:32.377Z,6.25
2023-06-09T13:38:38.847Z,6.75
2023-06-09T13:43:51.907Z,6.25
2023-06-09T13:49:04.866Z,7.50
2023-06-09T13:54:09.360Z,6.50
2023-06-09T13:59:12.205Z,7.00
2023-06-09T14:04:15.845Z,6.50
2023-06-09T14:09:20.420Z,5.75
2023-06-09T14:14:23.305Z,6.75
2023-06-09T14:19:26.241Z,5.75
2023-06-09T14:24:30.411Z,6.00
2023-06-09T14:29:33.622Z,6.00
2023-06-09T14:34:36.543Z,6.00
2023-06-09T14:39:40.898Z,7.50
2023-06-09T14:44:43.690Z,6.25
2023-06-09T14:49:46.582Z,6.50
2023-06-09T14:54:52.288Z,4.50
2023-06-09T14:59:55.060Z,4.50
2023-06-09T15:04:59.252Z,6.75
2023-06-09T15:10:03.693Z,6.25
2023-06-09T15:15:07.447Z,5.50
2023-06-09T15:20:11.741Z,5.00
2023-06-09T15:25:16.062Z,4.75
2023-06-09T15:30:18.883Z,6.25
2023-06-09T15:35:21.922Z,5.50
2023-06-09T15:40:26.285Z,5.25
2023-06-09T15:45:29.165Z,5.25
2023-06-09T15:50:32.009Z,4.00
2023-06-09T15:55:36.334Z,3.50
2023-06-09T16:00:39.197Z,4.00
2023-06-09T16:05:43.431Z,2.50
2023-06-09T16:10:48.526Z,3.25
2023-06-09T16:15:51.794Z,5.25
2023-06-09T16:20:54.752Z,5.75
2023-06-09T16:25:58.887Z,3.75
2023-06-09T16:31:01.821Z,4.75
2023-06-09T16:36:06.306Z,3.75
2023-06-09T16:41:10.568Z,5.75
2023-06-09T16:46:13.481Z,3.50
2023-06-09T16:51:17.839Z,4.25
2023-06-09T16:56:22.086Z,3.25
2023-06-09T17:01:25.094Z,3.50
2023-06-09T17:06:28.005Z,3.25
2023-06-09T17:11:32.494Z,4.50
2023-06-09T17:16:35.483Z,3.00
2023-06-09T17:21:39.317Z,2.00
2023-06-09T17:26:43.561Z,4.00
2023-06-09T17:31:46.351Z,4.00
2023-06-09T17:36:49.380Z,3.75
2023-06-09T17:41:53.790Z,3.75
2023-06-09T17:46:56.692Z,2.75
2023-06-09T17:51:59.521Z,2.25
2023-06-09T17:57:04.277Z,2.75
2023-06-09T18:02:09.354Z,3.50
2023-06-09T18:07:12.361Z,4.75
2023-06-09T18:12:17.705Z,5.00
2023-06-09T18:17:20.651Z,2.50
2023-06-09T18:22:24.572Z,3.00
2023-06-09T18:27:29.059Z,3.50
2023-06-09T18:32:32.270Z,3.00
2023-06-09T18:37:35.215Z,5.00
2023-06-09T18:42:40.626Z,4.00
2023-06-09T18:47:43.850Z,4.25
2023-06-09T18:52:46.724Z,4.25
2023-06-09T18:57:50.905Z,3.00
2023-06-09T19:02:53.977Z,2.50
2023-06-09T19:07:57.236Z,3.25
2023-06-09T19:13:02.634Z,5.00
2023-06-09T19:18:07.550Z,3.25
2023-06-09T19:23:10.739Z,2.50
2023-06-09T19:28:15.087Z,5.25
2023-06-09T19:33:22.265Z,4.00
2023-06-09T19:38:27.742Z,5.00
2023-06-09T19:43:31.906Z,2.50
2023-06-09T19:48:34.886Z,4.50
2023-06-09T19:53:37.685Z,3.25
2023-06-09T19:58:43.138Z,5.25
2023-06-09T20:03:46.022Z,5.00
2023-06-09T20:08:48.943Z,3.00
2023-06-09T20:13:53.825Z,2.75
2023-06-09T20:18:56.776Z,5.00
2023-06-09T20:23:59.819Z,4.25
2023-06-09T20:29:04.111Z,5.25
2023-06-09T20:34:07.143Z,4.25
2023-06-09T20:39:11.386Z,3.75
2023-06-09T20:44:16.304Z,5.00
2023-06-09T20:49:19.663Z,5.00
2023-06-09T20:54:22.634Z,6.50
2023-06-09T20:59:26.795Z,6.00
2023-06-09T21:04:30.615Z,5.00
2023-06-09T21:09:33.765Z,5.00
2023-06-09T21:14:37.907Z,7.00
2023-06-09T21:19:42.888Z,7.00
2023-06-09T21:24:46.366Z,4.00
2023-06-09T21:29:50.602Z,6.75
2023-06-09T21:34:53.760Z,6.00
2023-06-09T21:39:56.617Z,6.25
2023-06-09T21:45:00.796Z,4.25
2023-06-09T21:50:04.432Z,5.00
2023-06-09T21:55:08.967Z,5.25
2023-06-09T22:00:16.043Z,5.25
2023-06-09T22:05:19.016Z,6.25
2023-06-09T22:10:22.213Z,5.50
2023-06-09T22:15:27.190Z,5.75
2023-06-09T22:20:31.238Z,4.50
2023-06-09T22:25:34.157Z,5.00
2023-06-09T22:30:38.337Z,5.50
2023-06-09T22:35:41.375Z,5.00
2023-06-09T22:40:44.272Z,5.25
2023-06-09T22:45:48.497Z,4.50
2023-06-09T22:50:52.341Z,5.25
2023-06-09T22:55:55.189Z,5.75
2023-06-09T23:00:59.414Z,6.75
2023-06-09T23:06:04.216Z,5.25
2023-06-09T23:11:07.400Z,4.25
2023-06-09T23:16:11.782Z,5.00
2023-06-09T23:21:14.677Z,4.50
2023-06-09T23:26:17.555Z,4.75
2023-06-09T23:31:22.741Z,5.75
2023-06-09T23:36:28.977Z,5.00
2023-06-09T23:41:32.074Z,4.75
2023-06-09T23:46:36.614Z,6.00
2023-06-09T23:51:39.507Z,4.50
2023-06-09T23:56:42.288Z,4.50
